John Paul K — PBHY — position and weather

sailwx.info

Track history (hours):
 
Tides and Currents Weather Stations Pressure Air Temp Water Temp Dewpoint Dewpoint Depression Visibility Wind Speed Wind Dir Waves Ship Positions

John Paul K

Last reported at 2018-Nov-09 16:18 UTC. Time now 2018-Nov-13 07:00 UTC.
Position N 38°10' W 009°56'.

Length 90 m; draft 5.3 m.

Type: Cargo ship. MMSI: 245181000.

Date/timePositionNaut miles runAvg speedWind from/ knotsBaromVisibWave heightAir tempDewpointWater temp
2018-Nov-09 16:18N 38°10' W 009°56'310.7
2018-Nov-09 16:01N 38°13' W 009°57'510.7
2018-Nov-09 15:32N 38°18' W 009°58'510.6
2018-Nov-09 15:02N 38°23' W 010°00'510.2
2018-Nov-09 14:32N 38°28' W 010°02'510.1
2018-Nov-09 14:02N 38°33' W 010°03'5 9.9
2018-Nov-09 13:32N 38°38' W 010°05'510.0
2018-Nov-09 13:02N 38°43' W 010°06'5 9.9
2018-Nov-09 12:32N 38°48' W 010°06'5 9.3
2018-Nov-09 12:02N 38°52' W 010°06'4 9.0
2018-Nov-09 11:32N 38°57' W 010°06'5 9.1
2018-Nov-09 11:03N 39°01' W 010°06'5 9.6
2018-Nov-09 10:32N 39°06' W 010°06'5 9.7
2018-Nov-09 10:02N 39°11' W 010°05'5 9.9
2018-Nov-09 09:32N 39°16' W 010°05'  
2018-Nov-05 13:00N 49°58' W 002°58'4412.7
2018-Nov-05 09:32N 50°12' W 001°52'211.1
2018-Nov-05 09:19N 50°12' W 001°49'610.4
2018-Nov-05 08:42N 50°14' W 001°39'2 9.6
2018-Nov-05 08:27N 50°15' W 001°35'3 9.1
2018-Nov-05 08:04N 50°16' W 001°30'1 8.7
2018-Nov-05 07:59N 50°16' W 001°29'4 8.3
2018-Nov-05 07:30N 50°17' W 001°23'4 8.0
2018-Nov-05 07:03N 50°18' W 001°18'0 7.8
2018-Nov-05 07:00N 50°18' W 001°17'4 7.2
2018-Nov-05 06:29N 50°19' W 001°11'3 6.9
2018-Nov-05 06:00N 50°19' W 001°06'4 7.0
2018-Nov-05 05:30N 50°20' W 001°01'4 7.5
2018-Nov-05 04:58N 50°21' W 000°55'4810.8
2018-Nov-05 00:32N 50°34' E 000°17'111.5
2018-Nov-05 00:28N 50°35' E 000°18'511.6
2018-Nov-05 00:03N 50°36' E 000°26'111.2
2018-Nov-04 23:59N 50°36' E 000°27'511.0
2018-Nov-04 23:30N 50°38' E 000°35'510.5
2018-Nov-04 23:03N 50°41' E 000°40'110.3
2018-Nov-04 23:00N 50°41' E 000°41'510.1
2018-Nov-04 22:30N 50°44' E 000°47'4 9.7
2018-Nov-04 22:03N 50°47' E 000°53'1 9.3
2018-Nov-04 22:00N 50°47' E 000°54'18 8.9
2018-Nov-04 20:01N 50°58' E 001°15'3 9.2
2018-Nov-04 19:41N 51°00' E 001°19'5 9.8
2018-Nov-04 19:13N 51°03' E 001°25'210.5
2018-Nov-04 19:03N 51°04' E 001°27'110.9
2018-Nov-04 19:00N 51°04' E 001°28'611.5
2018-Nov-04 18:30N 51°08' E 001°35'612.2
2018-Nov-04 18:03N 51°12' E 001°41'112.2
2018-Nov-04 18:00N 51°12' E 001°42'612.3
2018-Nov-04 17:30N 51°17' E 001°48'612.0
2018-Nov-04 17:01N 51°23' E 001°52'611.4
2018-Nov-04 16:31N 51°27' E 001°57'510.9
2018-Nov-04 16:03N 51°31' E 002°02'010.7
2018-Nov-04 16:00N 51°31' E 002°03'510.6
2018-Nov-04 15:30N 51°36' E 002°08'510.4
2018-Nov-04 15:03N 51°39' E 002°13'110.1
2018-Nov-04 15:00N 51°39' E 002°14'610.0
2018-Nov-04 14:26N 51°44' E 002°20'4 9.5
2018-Nov-04 14:02N 51°47' E 002°24'4 9.3
2018-Nov-04 13:37N 51°50' E 002°28'2 9.0
2018-Nov-04 13:23N 51°51' E 002°30'6 8.8
2018-Nov-04 12:43N 51°56' E 002°36'30 8.6
2018-Nov-04 09:13N 52°19' E 003°08'2 9.4
2018-Nov-04 09:00N 52°20' E 003°10'5 9.7
2018-Nov-04 08:30N 52°24' E 003°15'3110.4
2018-Nov-04 05:32N 52°49' E 003°46'1010.3
2018-Nov-04 04:31N 52°57' E 003°57'010.3
2018-Nov-04 04:30N 52°57' E 003°57'21 9.4
2018-Nov-04 02:19N 53°11' E 004°23'4 8.4
2018-Nov-04 01:53N 53°14' E 004°25'3 8.3
2018-Nov-04 01:30N 53°17' E 004°28'6 8.1
2018-Nov-04 00:46N 53°22' E 004°32'11 7.9
2018-Nov-03 23:21N 53°29' E 004°46'10 9.9
2018-Nov-03 22:23N 53°33' E 005°01'2110.3
2018-Nov-03 20:20N 53°40' E 005°35'9 9.9
2018-Nov-03 19:26N 53°43' E 005°49'9 9.4
2018-Nov-03 18:31N 53°46' E 006°03'0 9.0
2018-Nov-03 18:30N 53°46' E 006°03'5 9.1
2018-Nov-03 17:57N 53°47' E 006°11'60 9.5
2018-Nov-03 11:37N 54°02' E 007°50'110.4
2018-Nov-03 11:30N 54°01' E 007°52'710.5
2018-Nov-03 10:52N 54°01' E 008°03'410.9
2018-Nov-03 10:30N 54°00' E 008°10'510.9
2018-Nov-03 10:03N 53°60' E 008°19'113.4
2018-Nov-03 10:00N 53°60' E 008°20'713.5
2018-Nov-03 09:30N 53°58' E 008°31'612.2
2018-Nov-03 09:03N 53°56' E 008°40'112.2
2018-Nov-03 09:00N 53°56' E 008°40'510.5
2018-Nov-03 08:30N 53°52' E 008°45'4 9.9
2018-Nov-03 08:03N 53°51' E 008°52'010.1
2018-Nov-03 08:00N 53°51' E 008°53'5 9.7
2018-Nov-03 07:30N 53°52' E 009°01'4 9.5
2018-Nov-03 07:03N 53°53' E 009°08'0 9.0
2018-Nov-03 07:00N 53°53' E 009°09'4 8.1
2018-Nov-03 06:30N 53°52' E 009°16'4 9.2
2018-Nov-03 06:03N 53°50' E 009°21'0 9.6
2018-Nov-03 06:00N 53°50' E 009°22'5 9.9
2018-Nov-03 05:30N 53°45' E 009°25'510.9
2018-Nov-03 05:03N 53°41' E 009°30'111.9
2018-Nov-03 05:00N 53°41' E 009°30'612.2
2018-Nov-03 04:30N 53°36' E 009°36'612.4
2018-Nov-03 04:03N 53°34' E 009°45'112.6
2018-Nov-03 04:00N 53°34' E 009°46'510.8
2018-Nov-03 03:30N 53°33' E 009°55'1 3.0
2018-Nov-03 03:01N 53°32' E 009°58'0 0.0
2018-Nov-03 02:58N 53°32' E 009°58'0 0.0
2018-Nov-03 02:31N 53°32' E 009°58'1 1.6
2018-Nov-03 02:04N 53°32' E 009°56'0 7.3
2018-Nov-03 02:01N 53°32' E 009°56'1 1.2
2018-Nov-03 01:28N 53°31' E 009°57'0 0.0
2018-Nov-03 01:01N 53°31' E 009°57'0 0.2
2018-Nov-03 00:58N 53°31' E 009°57'0 0.0
2018-Nov-03 00:28N 53°31' E 009°57'0 0.0
2018-Nov-03 00:01N 53°31' E 009°57'0 0.0
2018-Nov-02 23:58N 53°31' E 009°57'0 0.0
2018-Nov-02 23:28N 53°31' E 009°57'0 0.0
2018-Nov-02 23:03N 53°31' E 009°57'0 0.2
2018-Nov-02 23:00N 53°31' E 009°57'0 0.4
2018-Nov-02 22:30N 53°31' E 009°57'0 1.0
2018-Nov-02 22:03N 53°31' E 009°56'0 3.2
2018-Nov-02 22:00N 53°31' E 009°56'1 1.5
2018-Nov-02 21:30N 53°32' E 009°57'0 0.8
2018-Nov-02 21:03N 53°32' E 009°58'0 0.0
2018-Nov-02 21:00N 53°32' E 009°58'0 0.0
2018-Nov-02 20:30N 53°32' E 009°58'0 0.0
2018-Nov-02 20:03N 53°32' E 009°58'0 0.0
2018-Nov-02 20:00N 53°32' E 009°58'0 0.0
2018-Nov-02 19:30N 53°32' E 009°58'0 0.0
2018-Nov-02 19:03N 53°32' E 009°58'0 0.0
2018-Nov-02 19:00N 53°32' E 009°58'0 0.0
2018-Nov-02 18:30N 53°32' E 009°58'0 0.0
2018-Nov-02 18:00N 53°32' E 009°58'0 0.0
2018-Nov-02 17:30N 53°32' E 009°58'0 0.0
2018-Nov-02 17:03N 53°32' E 009°58'0 0.0
2018-Nov-02 17:00N 53°32' E 009°58'0 0.0
2018-Nov-02 16:30N 53°32' E 009°58'0 0.0
2018-Nov-02 16:03N 53°32' E 009°58'0 0.1
2018-Nov-02 16:00N 53°32' E 009°58'0 0.0
2018-Nov-02 15:30N 53°32' E 009°58'0 0.0
2018-Nov-02 15:03N 53°32' E 009°58'0 0.0
2018-Nov-02 15:00N 53°32' E 009°58'0 0.0
2018-Nov-02 14:30N 53°32' E 009°58'0 0.0
2018-Nov-02 14:00N 53°32' E 009°58'0 0.0
2018-Nov-02 13:30N 53°32' E 009°58'0 0.0
2018-Nov-02 13:03N 53°32' E 009°58'0 0.0
2018-Nov-02 13:00N 53°32' E 009°58'1 1.5
2018-Nov-02 12:30N 53°32' E 009°57'1 2.3
2018-Nov-02 12:02N 53°31' E 009°57'0 0.0
2018-Nov-02 11:59N 53°31' E 009°57'0 0.0
2018-Nov-02 11:29N 53°31' E 009°57'0 0.0
2018-Nov-02 11:02N 53°31' E 009°57'0 0.1
2018-Nov-02 10:59N 53°31' E 009°57'0 0.0
2018-Nov-02 10:29N 53°31' E 009°57'0 0.0
2018-Nov-02 10:02N 53°31' E 009°57'0 0.0
2018-Nov-02 09:59N 53°31' E 009°57'0 0.0
2018-Nov-02 09:29N 53°31' E 009°57'0 0.0
2018-Nov-02 09:02N 53°31' E 009°57'0 0.0
2018-Nov-02 08:59N 53°31' E 009°57'0 0.0
2018-Nov-02 08:29N 53°31' E 009°57'0 0.0
2018-Nov-02 08:02N 53°31' E 009°57'0 0.0
2018-Nov-02 07:59N 53°31' E 009°57'0 0.0
2018-Nov-02 07:29N 53°31' E 009°57'0 0.0
2018-Nov-02 07:02N 53°31' E 009°57'0 0.0
2018-Nov-02 06:59N 53°31' E 009°57'0 0.0
2018-Nov-02 06:29N 53°31' E 009°57'0 0.0
2018-Nov-02 06:02N 53°31' E 009°57'0 0.1
2018-Nov-02 05:59N 53°31' E 009°57'0 0.0
2018-Nov-02 05:26N 53°31' E 009°57'0 0.0
2018-Nov-02 05:02N 53°31' E 009°57'0 0.0
2018-Nov-02 04:59N 53°31' E 009°57'0 0.0
2018-Nov-02 04:29N 53°31' E 009°57'0 0.0
2018-Nov-02 04:02N 53°31' E 009°57'0 0.1
2018-Nov-02 03:59N 53°31' E 009°57'0 0.0
2018-Nov-02 03:26N 53°31' E 009°57'0 0.0
2018-Nov-02 03:02N 53°31' E 009°57'0 0.0
2018-Nov-02 02:59N 53°31' E 009°57'0 0.0
2018-Nov-02 02:29N 53°31' E 009°57'0 0.0
2018-Nov-02 02:02N 53°31' E 009°57'0 0.2
2018-Nov-02 01:59N 53°31' E 009°57'0 0.0
2018-Nov-02 01:29N 53°31' E 009°57'0 0.0
2018-Nov-02 01:02N 53°31' E 009°57'0 0.0
2018-Nov-02 00:59N 53°31' E 009°57'0 0.2
2018-Nov-02 00:56N 53°31' E 009°57'0 0.0
2018-Nov-02 00:35N 53°31' E 009°57'0 0.0
2018-Nov-02 00:30N 53°31' E 009°57'0 0.4
2018-Nov-02 00:03N 53°31' E 009°57'0 2.3
2018-Nov-02 00:01N 53°31' E 009°56'2 4.5
2018-Nov-01 23:30N 53°32' E 009°53'3 6.8
2018-Nov-01 23:03N 53°33' E 009°48'0 8.5
2018-Nov-01 23:00N 53°33' E 009°48'3 6.3
2018-Nov-01 22:30N 53°34' E 009°43'2 5.1
2018-Nov-01 22:03N 53°34' E 009°39'0 5.1
2018-Nov-01 22:00N 53°34' E 009°38'3 5.7
2018-Nov-01 21:31N 53°36' E 009°35'510.4
2018-Nov-01 21:04N 53°40' E 009°30'111.8
2018-Nov-01 21:01N 53°41' E 009°30'611.8
2018-Nov-01 20:31N 53°45' E 009°24'512.2
2018-Nov-01 20:04N 53°50' E 009°20'112.4
2018-Nov-01 20:01N 53°51' E 009°19'611.5
2018-Nov-01 19:30N 53°53' E 009°10'0 0.2
2018-Nov-01 19:03N 53°53' E 009°10'0 0.2
2018-Nov-01 19:00N 53°53' E 009°10'0 0.0
2018-Nov-01 18:24N 53°53' E 009°10'0 0.0
2018-Nov-01 18:03N 53°53' E 009°10'0 0.2
2018-Nov-01 18:00N 53°53' E 009°10'0 0.0
2018-Nov-01 17:30N 53°53' E 009°10'0 0.0
2018-Nov-01 17:00N 53°53' E 009°10'0 0.0
2018-Nov-01 16:30N 53°53' E 009°10'0 0.0
2018-Nov-01 16:03N 53°53' E 009°10'0 0.1
2018-Nov-01 16:00N 53°53' E 009°10'0 0.0
2018-Nov-01 15:27N 53°53' E 009°10'0 0.1
2018-Nov-01 14:57N 53°53' E 009°10'0 0.2
2018-Nov-01 14:09N 53°53' E 009°10'0 0.0
2018-Nov-01 13:51N 53°53' E 009°10'0 0.0
2018-Nov-01 12:27N 53°53' E 009°10'0 0.0
2018-Nov-01 09:36N 53°53' E 009°10'0 0.1
2018-Nov-01 09:30N 53°53' E 009°10'0 0.0
2018-Nov-01 08:36N 53°53' E 009°10'0 0.0
2018-Nov-01 08:12N 53°53' E 009°10'0 0.0
2018-Nov-01 08:00N 53°53' E 009°10'0 0.0
2018-Nov-01 07:30N 53°53' E 009°10'0 0.0
2018-Nov-01 07:03N 53°53' E 009°10'0 0.2
2018-Nov-01 07:00N 53°53' E 009°10'0 0.2
2018-Nov-01 06:30N 53°53' E 009°10'0 0.0
2018-Nov-01 06:00N 53°53' E 009°10'0 0.0
2018-Nov-01 05:30N 53°53' E 009°10'0 0.0
2018-Nov-01 04:54N 53°53' E 009°10'0 0.0
2018-Nov-01 04:30N 53°53' E 009°10'0 0.0
2018-Nov-01 04:00N 53°53' E 009°10'0 0.0
2018-Nov-01 03:27N 53°53' E 009°10'0 0.0
2018-Nov-01 03:03N 53°53' E 009°10'0 0.0
2018-Nov-01 03:00N 53°53' E 009°10'0 0.1
2018-Nov-01 02:30N 53°53' E 009°10'0 0.3
2018-Nov-01 02:03N 53°53' E 009°10'0 0.2
2018-Nov-01 02:00N 53°53' E 009°10'0 0.0
2018-Nov-01 01:15N 53°53' E 009°10'0 0.0
2018-Nov-01 00:57N 53°53' E 009°10'0 0.0
2018-Nov-01 00:18N 53°53' E 009°10'0 0.1
2018-Oct-31 23:56N 53°53' E 009°10'1 2.9
2018-Oct-31 23:30N 53°54' E 009°09'0 0.2
2018-Oct-31 23:03N 53°54' E 009°09'0 0.9
2018-Oct-31 23:00N 53°54' E 009°09'2 4.8
2018-Oct-31 22:30N 53°55' E 009°12'4 8.6
2018-Oct-31 22:03N 53°58' E 009°16'0 8.5
2018-Oct-31 22:00N 53°59' E 009°16'4 8.3
2018-Oct-31 21:30N 54°03' E 009°18'4 8.3
2018-Oct-31 20:59N 54°07' E 009°20'4 7.8
2018-Oct-31 20:30N 54°10' E 009°24'4 8.5
2018-Oct-31 20:03N 54°11' E 009°30'0 8.4
2018-Oct-31 20:00N 54°11' E 009°31'4 8.4
2018-Oct-31 19:30N 54°14' E 009°36'2 4.5
2018-Oct-31 19:03N 54°16' E 009°37'0 4.2
2018-Oct-31 19:01N 54°16' E 009°38'3 6.2
2018-Oct-31 18:30N 54°18' E 009°42'2 4.0
2018-Oct-31 18:04N 54°19' E 009°43'0 3.0
2018-Oct-31 18:00N 54°20' E 009°43'2 4.8
2018-Oct-31 17:30N 54°21' E 009°46'3 6.9
2018-Oct-31 17:03N 54°22' E 009°52'0 8.5
2018-Oct-31 17:00N 54°22' E 009°52'4 8.0
2018-Oct-31 16:31N 54°21' E 009°59'3 7.0
2018-Oct-31 16:04N 54°22' E 010°04'0 4.7
2018-Oct-31 16:00N 54°22' E 010°04'3 5.1
2018-Oct-31 15:31N 54°22' E 010°09'0 0.0
2018-Oct-31 15:04N 54°22' E 010°09'0 0.1
2018-Oct-31 15:01N 54°22' E 010°09'7 6.8
2018-Oct-31 14:03N 54°27' E 010°15'111.7
2018-Oct-31 14:00N 54°28' E 010°15'510.0
2018-Oct-31 13:30N 54°31' E 010°22'510.1
2018-Oct-31 13:03N 54°33' E 010°29'110.2
2018-Oct-31 13:00N 54°33' E 010°30'510.0
2018-Oct-31 12:31N 54°35' E 010°38'510.3
2018-Oct-31 12:01N 54°35' E 010°47'010.1
2018-Oct-31 12:00N 54°35' E 010°47'510.1
2018-Oct-31 11:30N 54°36' E 010°56'4 9.9
2018-Oct-31 11:03N 54°36' E 011°03'0 9.7
2018-Oct-31 11:01N 54°36' E 011°04'5 9.7
2018-Oct-31 10:30N 54°35' E 011°12'510.1
2018-Oct-31 10:03N 54°33' E 011°19'010.1
2018-Oct-31 10:01N 54°33' E 011°20'510.0
2018-Oct-31 09:31N 54°32' E 011°28'4 9.7
2018-Oct-31 09:04N 54°30' E 011°36'1 9.5
2018-Oct-31 09:00N 54°30' E 011°36'4 8.7
2018-Oct-31 08:30N 54°29' E 011°44'4 8.1
2018-Oct-31 08:04N 54°28' E 011°50'1 7.9
2018-Oct-31 07:59N 54°28' E 011°51'4 7.6
2018-Oct-31 07:30N 54°27' E 011°57'3 6.9
2018-Oct-31 07:04N 54°27' E 012°02'0 7.7
2018-Oct-31 07:00N 54°27' E 012°03'4 7.3
2018-Oct-31 06:30N 54°27' E 012°09'3 6.7
2018-Oct-31 06:04N 54°30' E 012°11'0 6.6
2018-Oct-31 06:00N 54°30' E 012°12'  
Track history (hours):
 
Tides and Currents Weather Stations Pressure Air Temp Water Temp Dewpoint Dewpoint Depression Visibility Wind Speed Wind Dir Waves Ship Positions

John Paul K

Last reported at 2018-Nov-09 16:18 UTC. Time now 2018-Nov-13 07:00 UTC.
Position N 38°10' W 009°56'.

Length 90 m; draft 5.3 m.

Type: Cargo ship. MMSI: 245181000.

Date/timePositionNaut miles runAvg speedWind from/ knotsBaromVisibWave heightAir tempDewpointWater temp
2018-Nov-09 16:18N 38°10' W 009°56'310.7
2018-Nov-09 16:01N 38°13' W 009°57'510.7
2018-Nov-09 15:32N 38°18' W 009°58'510.6
2018-Nov-09 15:02N 38°23' W 010°00'510.2
2018-Nov-09 14:32N 38°28' W 010°02'510.1
2018-Nov-09 14:02N 38°33' W 010°03'5 9.9
2018-Nov-09 13:32N 38°38' W 010°05'510.0
2018-Nov-09 13:02N 38°43' W 010°06'5 9.9
2018-Nov-09 12:32N 38°48' W 010°06'5 9.3
2018-Nov-09 12:02N 38°52' W 010°06'4 9.0
2018-Nov-09 11:32N 38°57' W 010°06'5 9.1
2018-Nov-09 11:03N 39°01' W 010°06'5 9.6
2018-Nov-09 10:32N 39°06' W 010°06'5 9.7
2018-Nov-09 10:02N 39°11' W 010°05'5 9.9
2018-Nov-09 09:32N 39°16' W 010°05'  
2018-Nov-05 13:00N 49°58' W 002°58'4412.7
2018-Nov-05 09:32N 50°12' W 001°52'211.1
2018-Nov-05 09:19N 50°12' W 001°49'610.4
2018-Nov-05 08:42N 50°14' W 001°39'2 9.6
2018-Nov-05 08:27N 50°15' W 001°35'3 9.1
2018-Nov-05 08:04N 50°16' W 001°30'1 8.7
2018-Nov-05 07:59N 50°16' W 001°29'4 8.3
2018-Nov-05 07:30N 50°17' W 001°23'4 8.0
2018-Nov-05 07:03N 50°18' W 001°18'0 7.8
2018-Nov-05 07:00N 50°18' W 001°17'4 7.2
2018-Nov-05 06:29N 50°19' W 001°11'3 6.9
2018-Nov-05 06:00N 50°19' W 001°06'4 7.0
2018-Nov-05 05:30N 50°20' W 001°01'4 7.5
2018-Nov-05 04:58N 50°21' W 000°55'4810.8
2018-Nov-05 00:32N 50°34' E 000°17'111.5
2018-Nov-05 00:28N 50°35' E 000°18'511.6
2018-Nov-05 00:03N 50°36' E 000°26'111.2
2018-Nov-04 23:59N 50°36' E 000°27'511.0
2018-Nov-04 23:30N 50°38' E 000°35'510.5
2018-Nov-04 23:03N 50°41' E 000°40'110.3
2018-Nov-04 23:00N 50°41' E 000°41'510.1
2018-Nov-04 22:30N 50°44' E 000°47'4 9.7
2018-Nov-04 22:03N 50°47' E 000°53'1 9.3
2018-Nov-04 22:00N 50°47' E 000°54'18 8.9
2018-Nov-04 20:01N 50°58' E 001°15'3 9.2
2018-Nov-04 19:41N 51°00' E 001°19'5 9.8
2018-Nov-04 19:13N 51°03' E 001°25'210.5
2018-Nov-04 19:03N 51°04' E 001°27'110.9
2018-Nov-04 19:00N 51°04' E 001°28'611.5
2018-Nov-04 18:30N 51°08' E 001°35'612.2
2018-Nov-04 18:03N 51°12' E 001°41'112.2
2018-Nov-04 18:00N 51°12' E 001°42'612.3
2018-Nov-04 17:30N 51°17' E 001°48'612.0
2018-Nov-04 17:01N 51°23' E 001°52'611.4
2018-Nov-04 16:31N 51°27' E 001°57'510.9
2018-Nov-04 16:03N 51°31' E 002°02'010.7
2018-Nov-04 16:00N 51°31' E 002°03'510.6
2018-Nov-04 15:30N 51°36' E 002°08'510.4
2018-Nov-04 15:03N 51°39' E 002°13'110.1
2018-Nov-04 15:00N 51°39' E 002°14'610.0
2018-Nov-04 14:26N 51°44' E 002°20'4 9.5
2018-Nov-04 14:02N 51°47' E 002°24'4 9.3
2018-Nov-04 13:37N 51°50' E 002°28'2 9.0
2018-Nov-04 13:23N 51°51' E 002°30'6 8.8
2018-Nov-04 12:43N 51°56' E 002°36'30 8.6
2018-Nov-04 09:13N 52°19' E 003°08'2 9.4
2018-Nov-04 09:00N 52°20' E 003°10'5 9.7
2018-Nov-04 08:30N 52°24' E 003°15'3110.4
2018-Nov-04 05:32N 52°49' E 003°46'1010.3
2018-Nov-04 04:31N 52°57' E 003°57'010.3
2018-Nov-04 04:30N 52°57' E 003°57'21 9.4
2018-Nov-04 02:19N 53°11' E 004°23'4 8.4
2018-Nov-04 01:53N 53°14' E 004°25'3 8.3
2018-Nov-04 01:30N 53°17' E 004°28'6 8.1
2018-Nov-04 00:46N 53°22' E 004°32'11 7.9
2018-Nov-03 23:21N 53°29' E 004°46'10 9.9
2018-Nov-03 22:23N 53°33' E 005°01'2110.3
2018-Nov-03 20:20N 53°40' E 005°35'9 9.9
2018-Nov-03 19:26N 53°43' E 005°49'9 9.4
2018-Nov-03 18:31N 53°46' E 006°03'0 9.0
2018-Nov-03 18:30N 53°46' E 006°03'5 9.1
2018-Nov-03 17:57N 53°47' E 006°11'60 9.5
2018-Nov-03 11:37N 54°02' E 007°50'110.4
2018-Nov-03 11:30N 54°01' E 007°52'710.5
2018-Nov-03 10:52N 54°01' E 008°03'410.9
2018-Nov-03 10:30N 54°00' E 008°10'510.9
2018-Nov-03 10:03N 53°60' E 008°19'113.4
2018-Nov-03 10:00N 53°60' E 008°20'713.5
2018-Nov-03 09:30N 53°58' E 008°31'612.2
2018-Nov-03 09:03N 53°56' E 008°40'112.2
2018-Nov-03 09:00N 53°56' E 008°40'510.5
2018-Nov-03 08:30N 53°52' E 008°45'4 9.9
2018-Nov-03 08:03N 53°51' E 008°52'010.1
2018-Nov-03 08:00N 53°51' E 008°53'5 9.7
2018-Nov-03 07:30N 53°52' E 009°01'4 9.5
2018-Nov-03 07:03N 53°53' E 009°08'0 9.0
2018-Nov-03 07:00N 53°53' E 009°09'4 8.1
2018-Nov-03 06:30N 53°52' E 009°16'4 9.2
2018-Nov-03 06:03N 53°50' E 009°21'0 9.6
2018-Nov-03 06:00N 53°50' E 009°22'5 9.9
2018-Nov-03 05:30N 53°45' E 009°25'510.9
2018-Nov-03 05:03N 53°41' E 009°30'111.9
2018-Nov-03 05:00N 53°41' E 009°30'612.2
2018-Nov-03 04:30N 53°36' E 009°36'612.4
2018-Nov-03 04:03N 53°34' E 009°45'112.6
2018-Nov-03 04:00N 53°34' E 009°46'510.8
2018-Nov-03 03:30N 53°33' E 009°55'1 3.0
2018-Nov-03 03:01N 53°32' E 009°58'0 0.0
2018-Nov-03 02:58N 53°32' E 009°58'0 0.0
2018-Nov-03 02:31N 53°32' E 009°58'1 1.6
2018-Nov-03 02:04N 53°32' E 009°56'0 7.3
2018-Nov-03 02:01N 53°32' E 009°56'1 1.2
2018-Nov-03 01:28N 53°31' E 009°57'0 0.0
2018-Nov-03 01:01N 53°31' E 009°57'0 0.2
2018-Nov-03 00:58N 53°31' E 009°57'0 0.0
2018-Nov-03 00:28N 53°31' E 009°57'0 0.0
2018-Nov-03 00:01N 53°31' E 009°57'0 0.0
2018-Nov-02 23:58N 53°31' E 009°57'0 0.0
2018-Nov-02 23:28N 53°31' E 009°57'0 0.0
2018-Nov-02 23:03N 53°31' E 009°57'0 0.2
2018-Nov-02 23:00N 53°31' E 009°57'0 0.4
2018-Nov-02 22:30N 53°31' E 009°57'0 1.0
2018-Nov-02 22:03N 53°31' E 009°56'0 3.2
2018-Nov-02 22:00N 53°31' E 009°56'1 1.5
2018-Nov-02 21:30N 53°32' E 009°57'0 0.8
2018-Nov-02 21:03N 53°32' E 009°58'0 0.0
2018-Nov-02 21:00N 53°32' E 009°58'0 0.0
2018-Nov-02 20:30N 53°32' E 009°58'0 0.0
2018-Nov-02 20:03N 53°32' E 009°58'0 0.0
2018-Nov-02 20:00N 53°32' E 009°58'0 0.0
2018-Nov-02 19:30N 53°32' E 009°58'0 0.0
2018-Nov-02 19:03N 53°32' E 009°58'0 0.0
2018-Nov-02 19:00N 53°32' E 009°58'0 0.0
2018-Nov-02 18:30N 53°32' E 009°58'0 0.0
2018-Nov-02 18:00N 53°32' E 009°58'0 0.0
2018-Nov-02 17:30N 53°32' E 009°58'0 0.0
2018-Nov-02 17:03N 53°32' E 009°58'0 0.0
2018-Nov-02 17:00N 53°32' E 009°58'0 0.0
2018-Nov-02 16:30N 53°32' E 009°58'0 0.0
2018-Nov-02 16:03N 53°32' E 009°58'0 0.1
2018-Nov-02 16:00N 53°32' E 009°58'0 0.0
2018-Nov-02 15:30N 53°32' E 009°58'0 0.0
2018-Nov-02 15:03N 53°32' E 009°58'0 0.0
2018-Nov-02 15:00N 53°32' E 009°58'0 0.0
2018-Nov-02 14:30N 53°32' E 009°58'0 0.0
2018-Nov-02 14:00N 53°32' E 009°58'0 0.0
2018-Nov-02 13:30N 53°32' E 009°58'0 0.0
2018-Nov-02 13:03N 53°32' E 009°58'0 0.0
2018-Nov-02 13:00N 53°32' E 009°58'1 1.5
2018-Nov-02 12:30N 53°32' E 009°57'1 2.3
2018-Nov-02 12:02N 53°31' E 009°57'0 0.0
2018-Nov-02 11:59N 53°31' E 009°57'0 0.0
2018-Nov-02 11:29N 53°31' E 009°57'0 0.0
2018-Nov-02 11:02N 53°31' E 009°57'0 0.1
2018-Nov-02 10:59N 53°31' E 009°57'0 0.0
2018-Nov-02 10:29N 53°31' E 009°57'0 0.0
2018-Nov-02 10:02N 53°31' E 009°57'0 0.0
2018-Nov-02 09:59N 53°31' E 009°57'0 0.0
2018-Nov-02 09:29N 53°31' E 009°57'0 0.0
2018-Nov-02 09:02N 53°31' E 009°57'0 0.0
2018-Nov-02 08:59N 53°31' E 009°57'0 0.0
2018-Nov-02 08:29N 53°31' E 009°57'0 0.0
2018-Nov-02 08:02N 53°31' E 009°57'0 0.0
2018-Nov-02 07:59N 53°31' E 009°57'0 0.0
2018-Nov-02 07:29N 53°31' E 009°57'0 0.0
2018-Nov-02 07:02N 53°31' E 009°57'0 0.0
2018-Nov-02 06:59N 53°31' E 009°57'0 0.0
2018-Nov-02 06:29N 53°31' E 009°57'0 0.0
2018-Nov-02 06:02N 53°31' E 009°57'0 0.1
2018-Nov-02 05:59N 53°31' E 009°57'0 0.0
2018-Nov-02 05:26N 53°31' E 009°57'0 0.0
2018-Nov-02 05:02N 53°31' E 009°57'0 0.0
2018-Nov-02 04:59N 53°31' E 009°57'0 0.0
2018-Nov-02 04:29N 53°31' E 009°57'0 0.0
2018-Nov-02 04:02N 53°31' E 009°57'0 0.1
2018-Nov-02 03:59N 53°31' E 009°57'0 0.0
2018-Nov-02 03:26N 53°31' E 009°57'0 0.0
2018-Nov-02 03:02N 53°31' E 009°57'0 0.0
2018-Nov-02 02:59N 53°31' E 009°57'0 0.0
2018-Nov-02 02:29N 53°31' E 009°57'0 0.0
2018-Nov-02 02:02N 53°31' E 009°57'0 0.2
2018-Nov-02 01:59N 53°31' E 009°57'0 0.0
2018-Nov-02 01:29N 53°31' E 009°57'0 0.0
2018-Nov-02 01:02N 53°31' E 009°57'0 0.0
2018-Nov-02 00:59N 53°31' E 009°57'0 0.2
2018-Nov-02 00:56N 53°31' E 009°57'0 0.0
2018-Nov-02 00:35N 53°31' E 009°57'0 0.0
2018-Nov-02 00:30N 53°31' E 009°57'0 0.4
2018-Nov-02 00:03N 53°31' E 009°57'0 2.3
2018-Nov-02 00:01N 53°31' E 009°56'2 4.5
2018-Nov-01 23:30N 53°32' E 009°53'3 6.8
2018-Nov-01 23:03N 53°33' E 009°48'0 8.5
2018-Nov-01 23:00N 53°33' E 009°48'3 6.3
2018-Nov-01 22:30N 53°34' E 009°43'2 5.1
2018-Nov-01 22:03N 53°34' E 009°39'0 5.1
2018-Nov-01 22:00N 53°34' E 009°38'3 5.7
2018-Nov-01 21:31N 53°36' E 009°35'510.4
2018-Nov-01 21:04N 53°40' E 009°30'111.8
2018-Nov-01 21:01N 53°41' E 009°30'611.8
2018-Nov-01 20:31N 53°45' E 009°24'512.2
2018-Nov-01 20:04N 53°50' E 009°20'112.4
2018-Nov-01 20:01N 53°51' E 009°19'611.5
2018-Nov-01 19:30N 53°53' E 009°10'0 0.2
2018-Nov-01 19:03N 53°53' E 009°10'0 0.2
2018-Nov-01 19:00N 53°53' E 009°10'0 0.0
2018-Nov-01 18:24N 53°53' E 009°10'0 0.0
2018-Nov-01 18:03N 53°53' E 009°10'0 0.2
2018-Nov-01 18:00N 53°53' E 009°10'0 0.0
2018-Nov-01 17:30N 53°53' E 009°10'0 0.0
2018-Nov-01 17:00N 53°53' E 009°10'0 0.0
2018-Nov-01 16:30N 53°53' E 009°10'0 0.0
2018-Nov-01 16:03N 53°53' E 009°10'0 0.1
2018-Nov-01 16:00N 53°53' E 009°10'0 0.0
2018-Nov-01 15:27N 53°53' E 009°10'0 0.1
2018-Nov-01 14:57N 53°53' E 009°10'0 0.2
2018-Nov-01 14:09N 53°53' E 009°10'0 0.0
2018-Nov-01 13:51N 53°53' E 009°10'0 0.0
2018-Nov-01 12:27N 53°53' E 009°10'0 0.0
2018-Nov-01 09:36N 53°53' E 009°10'0 0.1
2018-Nov-01 09:30N 53°53' E 009°10'0 0.0
2018-Nov-01 08:36N 53°53' E 009°10'0 0.0
2018-Nov-01 08:12N 53°53' E 009°10'0 0.0
2018-Nov-01 08:00N 53°53' E 009°10'0 0.0
2018-Nov-01 07:30N 53°53' E 009°10'0 0.0
2018-Nov-01 07:03N 53°53' E 009°10'0 0.2
2018-Nov-01 07:00N 53°53' E 009°10'0 0.2
2018-Nov-01 06:30N 53°53' E 009°10'0 0.0
2018-Nov-01 06:00N 53°53' E 009°10'0 0.0
2018-Nov-01 05:30N 53°53' E 009°10'0 0.0
2018-Nov-01 04:54N 53°53' E 009°10'0 0.0
2018-Nov-01 04:30N 53°53' E 009°10'0 0.0
2018-Nov-01 04:00N 53°53' E 009°10'0 0.0
2018-Nov-01 03:27N 53°53' E 009°10'0 0.0
2018-Nov-01 03:03N 53°53' E 009°10'0 0.0
2018-Nov-01 03:00N 53°53' E 009°10'0 0.1
2018-Nov-01 02:30N 53°53' E 009°10'0 0.3
2018-Nov-01 02:03N 53°53' E 009°10'0 0.2
2018-Nov-01 02:00N 53°53' E 009°10'0 0.0
2018-Nov-01 01:15N 53°53' E 009°10'0 0.0
2018-Nov-01 00:57N 53°53' E 009°10'0 0.0
2018-Nov-01 00:18N 53°53' E 009°10'0 0.1
2018-Oct-31 23:56N 53°53' E 009°10'1 2.9
2018-Oct-31 23:30N 53°54' E 009°09'0 0.2
2018-Oct-31 23:03N 53°54' E 009°09'0 0.9
2018-Oct-31 23:00N 53°54' E 009°09'2 4.8
2018-Oct-31 22:30N 53°55' E 009°12'4 8.6
2018-Oct-31 22:03N 53°58' E 009°16'0 8.5
2018-Oct-31 22:00N 53°59' E 009°16'4 8.3
2018-Oct-31 21:30N 54°03' E 009°18'4 8.3
2018-Oct-31 20:59N 54°07' E 009°20'4 7.8
2018-Oct-31 20:30N 54°10' E 009°24'4 8.5
2018-Oct-31 20:03N 54°11' E 009°30'0 8.4
2018-Oct-31 20:00N 54°11' E 009°31'4 8.4
2018-Oct-31 19:30N 54°14' E 009°36'2 4.5
2018-Oct-31 19:03N 54°16' E 009°37'0 4.2
2018-Oct-31 19:01N 54°16' E 009°38'3 6.2
2018-Oct-31 18:30N 54°18' E 009°42'2 4.0
2018-Oct-31 18:04N 54°19' E 009°43'0 3.0
2018-Oct-31 18:00N 54°20' E 009°43'2 4.8
2018-Oct-31 17:30N 54°21' E 009°46'3 6.9
2018-Oct-31 17:03N 54°22' E 009°52'0 8.5
2018-Oct-31 17:00N 54°22' E 009°52'4 8.0
2018-Oct-31 16:31N 54°21' E 009°59'3 7.0
2018-Oct-31 16:04N 54°22' E 010°04'0 4.7
2018-Oct-31 16:00N 54°22' E 010°04'3 5.1
2018-Oct-31 15:31N 54°22' E 010°09'0 0.0
2018-Oct-31 15:04N 54°22' E 010°09'0 0.1
2018-Oct-31 15:01N 54°22' E 010°09'7 6.8
2018-Oct-31 14:03N 54°27' E 010°15'111.7
2018-Oct-31 14:00N 54°28' E 010°15'510.0
2018-Oct-31 13:30N 54°31' E 010°22'510.1
2018-Oct-31 13:03N 54°33' E 010°29'110.2
2018-Oct-31 13:00N 54°33' E 010°30'510.0
2018-Oct-31 12:31N 54°35' E 010°38'510.3
2018-Oct-31 12:01N 54°35' E 010°47'010.1
2018-Oct-31 12:00N 54°35' E 010°47'510.1
2018-Oct-31 11:30N 54°36' E 010°56'4 9.9
2018-Oct-31 11:03N 54°36' E 011°03'0 9.7
2018-Oct-31 11:01N 54°36' E 011°04'5 9.7
2018-Oct-31 10:30N 54°35' E 011°12'510.1
2018-Oct-31 10:03N 54°33' E 011°19'010.1
2018-Oct-31 10:01N 54°33' E 011°20'510.0
2018-Oct-31 09:31N 54°32' E 011°28'4 9.7
2018-Oct-31 09:04N 54°30' E 011°36'1 9.5
2018-Oct-31 09:00N 54°30' E 011°36'4 8.7
2018-Oct-31 08:30N 54°29' E 011°44'4 8.1
2018-Oct-31 08:04N 54°28' E 011°50'1 7.9
2018-Oct-31 07:59N 54°28' E 011°51'4 7.6
2018-Oct-31 07:30N 54°27' E 011°57'3 6.9
2018-Oct-31 07:04N 54°27' E 012°02'0 7.7
2018-Oct-31 07:00N 54°27' E 012°03'4 7.3
2018-Oct-31 06:30N 54°27' E 012°09'3 6.7
2018-Oct-31 06:04N 54°30' E 012°11'0 6.6
2018-Oct-31 06:00N 54°30' E 012°12'  

Dump ship's entire track history